Time;durP1;ratioP1;P1;durP2;ratioP2;P2;SDS_P1;SDS_P2;PMS_P1;PMS_P2;Temp;Humidity;BMP_temperature;BMP_pressure;BME280_temperature;BME280_humidity;BME280_pressure;Samples;Min_cycle;Max_cycle;Signal;HPM_P1;HPM_P2
2023/01/21 00:01:05;;;;;;;19.80;9.30;;;;;;;-1.30;96.57;98229.42;105331;1257;99035;-66
2023/01/21 00:03:32;;;;;;;21.40;9.90;;;;;;;-1.28;96.50;98228.88;105254;1266;98102;-66
2023/01/21 00:06:00;;;;;;;20.80;9.40;;;;;;;-1.27;96.54;98227.61;105294;1254;98496;-66
2023/01/21 00:08:28;;;;;;;10.60;5.60;;;;;;;-1.29;96.38;98227.46;105314;1258;98651;-66
2023/01/21 00:10:55;;;;;;;17.30;7.20;;;;;;;-1.29;96.39;98226.05;105331;1258;111911;-66
2023/01/21 00:13:22;;;;;;;22.00;9.40;;;;;;;-1.27;96.42;98226.00;105274;1256;97943;-66
2023/01/21 00:15:49;;;;;;;21.30;9.30;;;;;;;-1.28;96.47;98228.08;105294;1258;97908;-66
2023/01/21 00:18:16;;;;;;;15.90;6.80;;;;;;;-1.27;96.45;98229.21;105246;1264;98394;-66
2023/01/21 00:20:44;;;;;;;25.20;10.20;;;;;;;-1.24;96.54;98226.41;105280;1257;97889;-66
2023/01/21 00:23:12;;;;;;;19.60;9.80;;;;;;;-1.22;96.37;98228.98;105299;1254;99070;-66
2023/01/21 00:25:39;;;;;;;18.10;9.50;;;;;;;-1.23;96.26;98230.04;105266;1257;99229;-66
2023/01/21 00:28:06;;;;;;;17.10;8.20;;;;;;;-1.23;96.40;98236.42;105306;1257;97915;-66
2023/01/21 00:30:33;;;;;;;11.50;4.10;;;;;;;-1.23;96.40;98241.26;105323;1257;97902;-66
2023/01/21 00:33:00;;;;;;;22.40;9.50;;;;;;;-1.26;96.57;98244.30;105340;1264;97953;-66
2023/01/21 00:35:32;;;;;;;23.80;9.80;;;;;;;-1.26;96.58;98245.36;105273;1266;99303;-66
2023/01/21 00:38:08;;;;;;;17.80;6.90;;;;;;;-1.26;96.35;98247.52;105276;1266;98950;-64
2023/01/21 00:40:37;;;;;;;21.60;9.40;;;;;;;-1.26;96.27;98242.94;105314;1257;107792;-64
2023/01/21 00:43:04;;;;;;;20.50;9.10;;;;;;;-1.23;96.37;98244.60;105205;1266;97905;-64
2023/01/21 00:45:31;;;;;;;22.20;9.30;;;;;;;-1.19;96.42;98240.94;105178;1256;98446;-66
2023/01/21 00:47:58;;;;;;;22.90;10.40;;;;;;;-1.20;96.18;98236.96;105257;1260;97923;-67
2023/01/21 00:50:25;;;;;;;15.90;6.50;;;;;;;-1.17;96.20;98240.06;105270;1266;98004;-66
2023/01/21 00:52:52;;;;;;;15.10;5.80;;;;;;;-1.15;96.28;98245.37;105287;1257;99199;-66
2023/01/21 00:55:19;;;;;;;15.40;6.80;;;;;;;-1.13;96.25;98251.30;105348;1258;98417;-66
2023/01/21 00:57:46;;;;;;;8.40;4.60;;;;;;;-1.15;96.16;98256.98;105285;1267;99333;-66
2023/01/21 01:00:15;;;;;;;15.90;7.70;;;;;;;-1.16;96.20;98253.95;105317;1258;97915;-66
2023/01/21 01:02:42;;;;;;;14.20;7.40;;;;;;;-1.16;96.24;98260.29;105100;1260;107270;-66
2023/01/21 01:05:09;;;;;;;14.80;7.30;;;;;;;-1.17;96.17;98264.05;105237;1267;97950;-66
2023/01/21 01:07:39;;;;;;;17.50;8.00;;;;;;;-1.21;96.12;98265.11;105239;1257;98792;-66
2023/01/21 01:10:08;;;;;;;18.60;8.40;;;;;;;-1.24;96.27;98267.70;105298;1266;111366;-66
2023/01/21 01:12:35;;;;;;;10.60;5.60;;;;;;;-1.22;96.50;98272.69;105151;1257;98953;-66
2023/01/21 01:15:02;;;;;;;16.00;6.40;;;;;;;-1.20;96.28;98277.02;104940;1275;98325;-67
2023/01/21 01:17:28;;;;;;;16.90;8.10;;;;;;;-1.19;96.15;98278.09;105173;1258;97998;-68
2023/01/21 01:19:56;;;;;;;19.80;8.00;;;;;;;-1.17;96.19;98282.38;105269;1254;99230;-67
2023/01/21 01:22:24;;;;;;;20.70;9.50;;;;;;;-1.13;96.37;98283.04;105306;1256;98061;-64
2023/01/21 01:24:51;;;;;;;19.50;8.70;;;;;;;-1.08;96.25;98287.30;105225;1258;98366;-64
2023/01/21 01:27:18;;;;;;;17.60;7.50;;;;;;;-1.09;95.96;98287.31;105075;1257;97950;-65
2023/01/21 01:29:45;;;;;;;12.40;6.00;;;;;;;-1.07;96.00;98286.09;105323;1268;97959;-65
2023/01/21 01:32:12;;;;;;;13.60;6.10;;;;;;;-1.07;96.03;98289.59;105267;1256;97969;-65
2023/01/21 01:34:39;;;;;;;9.90;4.30;;;;;;;-1.08;96.09;98288.87;105244;1262;97931;-65
2023/01/21 01:37:06;;;;;;;12.40;6.30;;;;;;;-1.12;96.20;98289.26;105346;1257;98019;-65
2023/01/21 01:39:34;;;;;;;20.10;8.70;;;;;;;-1.14;96.12;98293.95;105245;1257;97978;-65
2023/01/21 01:42:02;;;;;;;21.60;9.30;;;;;;;-1.15;96.04;98298.84;105223;1258;98211;-65
2023/01/21 01:44:56;;;;;;;19.40;7.80;;;;;;;-1.14;96.17;98299.22;105288;1264;112673;-65
2023/01/21 01:47:39;;;;;;;18.90;7.70;;;;;;;-1.13;96.08;98301.76;105290;1254;99240;-65
2023/01/21 01:50:10;;;;;;;24.90;9.70;;;;;;;-1.09;95.98;98301.23;105277;1257;107507;-65
2023/01/21 01:52:39;;;;;;;15.60;6.70;;;;;;;-1.05;96.15;98298.80;105299;1256;97873;-65
2023/01/21 01:55:08;;;;;;;20.10;9.00;;;;;;;-1.02;95.94;98297.61;105278;1257;98362;-65
2023/01/21 01:57:43;;;;;;;16.10;7.40;;;;;;;-0.95;96.26;98301.03;105307;1257;112191;-64
2023/01/21 02:00:12;;;;;;;22.10;9.20;;;;;;;-0.94;95.88;98294.62;105263;1254;99161;-65
2023/01/21 02:02:42;;;;;;;18.20;8.90;;;;;;;-0.90;95.86;98298.27;105228;1257;108610;-65
2023/01/21 02:05:10;;;;;;;19.40;8.70;;;;;;;-0.87;95.88;98299.45;105306;1256;99272;-65
2023/01/21 02:07:42;;;;;;;17.90;8.50;;;;;;;-0.85;95.95;98299.46;105352;1266;97906;-64
2023/01/21 02:10:12;;;;;;;19.30;8.80;;;;;;;-0.85;95.98;98295.98;105275;1256;111241;-65
2023/01/21 02:12:42;;;;;;;16.50;8.10;;;;;;;-0.86;95.92;98294.73;105218;1267;99422;-65
2023/01/21 02:15:10;;;;;;;18.20;8.90;;;;;;;-0.88;96.01;98293.41;105238;1258;106340;-65
2023/01/21 02:17:59;;;;;;;16.70;7.90;;;;;;;-0.90;95.78;98293.70;105039;1270;97982;-65
2023/01/21 02:20:38;;;;;;;17.20;7.50;;;;;;;-0.93;95.81;98295.76;105244;1264;98001;-65
2023/01/21 02:23:13;;;;;;;10.40;5.70;;;;;;;-0.96;95.77;98289.04;105281;1267;111022;-65
2023/01/21 02:25:52;;;;;;;15.50;6.50;;;;;;;-1.01;95.81;98288.38;105307;1257;97979;-65
2023/01/21 02:29:21;;;;;;;16.00;7.50;;;;;;;-1.02;95.73;98284.70;104997;1260;107780;-65
2023/01/21 02:31:54;;;;;;;16.80;7.90;;;;;;;-1.00;95.68;98287.41;104839;1260;98100;-65
2023/01/21 02:34:30;;;;;;;18.00;7.90;;;;;;;-0.97;95.79;98288.05;105048;1254;99115;-65
2023/01/21 02:37:11;;;;;;;18.60;8.00;;;;;;;-0.94;95.67;98285.56;105101;1267;113331;-67
2023/01/21 02:39:41;;;;;;;16.30;7.90;;;;;;;-0.91;95.93;98282.55;105271;1255;99158;-67
2023/01/21 02:42:24;;;;;;;16.70;7.90;;;;;;;-0.87;95.83;98284.86;105268;1257;107102;-64
2023/01/21 02:45:42;;;;;;;16.80;8.20;;;;;;;-0.82;95.74;98284.23;105251;1257;97918;-65
2023/01/21 02:48:41;;;;;;;15.80;7.70;;;;;;;-0.76;95.88;98274.67;104900;1263;98253;-66
2023/01/21 02:51:12;;;;;;;16.40;7.10;;;;;;;-0.73;95.56;98272.77;104457;1268;112320;-65
2023/01/21 02:53:40;;;;;;;13.30;6.40;;;;;;;-0.73;95.48;98270.58;104357;1265;99444;-65
2023/01/21 02:56:12;;;;;;;15.20;6.70;;;;;;;-0.73;95.41;98274.02;104174;1283;108160;-65
2023/01/21 02:58:46;;;;;;;18.10;8.10;;;;;;;-0.76;95.45;98277.14;104435;1270;98143;-65
2023/01/21 03:01:27;;;;;;;12.00;6.20;;;;;;;-0.78;95.45;98276.04;104543;1268;99219;-65
2023/01/21 03:04:16;;;;;;;11.10;5.70;;;;;;;-0.83;95.36;98276.91;104380;1271;111787;-65
2023/01/21 03:07:07;;;;;;;10.80;5.40;;;;;;;-0.88;95.39;98272.69;104436;1281;98864;-68
2023/01/21 03:09:35;;;;;;;9.90;5.30;;;;;;;-0.94;95.27;98275.29;104411;1270;108810;-67
2023/01/21 03:12:14;;;;;;;10.50;5.40;;;;;;;-0.97;95.28;98273.85;104427;1270;97978;-66
2023/01/21 03:18:25;;;;;;;15.00;6.60;;;;;;;-0.99;95.41;98275.72;104362;1279;112354;-67
2023/01/21 03:20:57;;;;;;;11.80;5.30;;;;;;;-0.97;95.47;98274.55;104430;1268;99340;-65
2023/01/21 03:23:32;;;;;;;12.60;5.70;;;;;;;-0.95;95.60;98274.38;104524;1275;108712;-65
2023/01/21 03:26:00;;;;;;;14.10;6.50;;;;;;;-0.93;95.50;98276.22;104642;1265;98589;-66
2023/01/21 03:28:33;;;;;;;12.10;5.80;;;;;;;-0.90;95.39;98276.70;104907;1257;98155;-65
2023/01/21 03:31:22;;;;;;;14.10;5.60;;;;;;;-0.86;95.41;98275.03;105256;1254;111652;-64
2023/01/21 03:33:54;;;;;;;10.40;5.40;;;;;;;-0.84;95.53;98277.86;105298;1254;98576;-64
2023/01/21 03:36:36;;;;;;;12.10;5.60;;;;;;;-0.79;95.56;98278.08;105087;1257;108386;-64
2023/01/21 03:39:16;;;;;;;10.10;5.00;;;;;;;-0.77;95.42;98279.02;105252;1257;98566;-64
2023/01/21 03:41:43;;;;;;;7.00;3.90;;;;;;;-0.75;95.43;98272.27;105277;1257;97943;-64
2023/01/21 03:44:10;;;;;;;9.30;5.10;;;;;;;-0.76;95.07;98272.41;105115;1260;111110;-64
2023/01/21 03:46:53;;;;;;;9.70;5.00;;;;;;;-0.75;95.16;98271.95;105273;1256;99107;-64
2023/01/21 03:49:33;;;;;;;9.70;4.50;;;;;;;-0.76;95.26;98272.67;105284;1253;108562;-64
2023/01/21 03:52:01;;;;;;;10.30;5.00;;;;;;;-0.80;95.00;98271.13;105297;1256;97908;-64
2023/01/21 03:54:30;;;;;;;8.70;4.30;;;;;;;-0.85;95.27;98272.45;104989;1254;99093;-64
2023/01/21 03:56:57;;;;;;;6.50;3.40;;;;;;;-0.91;95.21;98277.13;105166;1257;111793;-66
2023/01/21 03:59:24;;;;;;;8.30;4.30;;;;;;;-0.95;95.19;98283.19;104877;1259;98085;-68
2023/01/21 04:01:51;;;;;;;10.70;4.90;;;;;;;-0.96;95.21;98279.61;105279;1264;98817;-65
2023/01/21 04:04:18;;;;;;;15.80;7.20;;;;;;;-0.96;95.39;98277.95;105298;1257;97940;-64
2023/01/21 04:06:45;;;;;;;15.20;7.50;;;;;;;-0.94;95.42;98275.23;105296;1264;97934;-63
2023/01/21 04:09:12;;;;;;;12.90;5.70;;;;;;;-0.94;95.34;98272.98;105255;1256;98015;-63
2023/01/21 04:11:39;;;;;;;11.10;5.80;;;;;;;-0.92;95.19;98272.32;105243;1257;97894;-63
2023/01/21 04:14:07;;;;;;;9.00;4.70;;;;;;;-0.89;95.40;98273.97;104998;1264;98001;-63
2023/01/21 04:16:34;;;;;;;10.10;5.30;;;;;;;-0.85;95.39;98273.91;105340;1257;99207;-63
2023/01/21 04:19:04;;;;;;;9.40;4.10;;;;;;;-0.84;95.30;98275.16;105300;1257;111879;-63
2023/01/21 04:21:35;;;;;;;8.70;4.70;;;;;;;-0.84;95.00;98276.61;105319;1257;99134;-63
2023/01/21 04:24:08;;;;;;;10.30;5.10;;;;;;;-0.82;95.12;98274.77;105299;1256;107770;-63
2023/01/21 04:26:42;;;;;;;8.10;4.60;;;;;;;-0.81;95.07;98277.09;105026;1260;98100;-63
2023/01/21 04:29:15;;;;;;;10.40;5.40;;;;;;;-0.79;95.07;98276.95;105321;1264;97902;-63
2023/01/21 04:31:48;;;;;;;6.80;4.20;;;;;;;-0.81;95.04;98277.46;105280;1255;112065;-63
2023/01/21 04:34:19;;;;;;;8.30;4.00;;;;;;;-0.84;94.90;98278.08;105248;1256;99243;-63
2023/01/21 04:36:49;;;;;;;8.60;4.00;;;;;;;-0.87;95.05;98275.61;105206;1257;108041;-63
2023/01/21 04:39:16;;;;;;;7.00;3.20;;;;;;;-0.89;95.01;98274.89;104987;1254;98055;-63
2023/01/21 04:41:44;;;;;;;6.50;3.20;;;;;;;-0.93;95.07;98273.48;104951;1254;294224;-63
2023/01/21 04:44:11;;;;;;;4.40;2.80;;;;;;;-0.98;95.12;98272.92;105255;1256;97906;-63
2023/01/21 04:46:37;;;;;;;7.70;4.00;;;;;;;-1.03;95.11;98268.39;105264;1252;97896;-62
2023/01/21 04:49:09;;;;;;;6.50;3.70;;;;;;;-1.06;95.23;98270.13;105261;1257;97937;-62
2023/01/21 04:51:38;;;;;;;7.30;3.70;;;;;;;-1.08;94.99;98271.23;105288;1261;97915;-62
2023/01/21 04:54:08;;;;;;;7.20;4.50;;;;;;;-1.08;95.19;98270.27;105286;1257;97857;-62
2023/01/21 04:56:38;;;;;;;7.20;4.30;;;;;;;-1.06;95.07;98270.71;105194;1254;109773;-63
2023/01/21 04:59:10;;;;;;;8.70;4.30;;;;;;;-1.02;95.25;98267.06;105281;1270;98861;-63
2023/01/21 05:01:44;;;;;;;19.50;10.60;;;;;;;-1.01;95.16;98264.80;105202;1267;107668;-62
2023/01/21 05:04:17;;;;;;;17.10;9.30;;;;;;;-0.98;95.03;98263.08;105032;1260;98075;-62
2023/01/21 05:06:50;;;;;;;14.60;7.90;;;;;;;-0.95;95.11;98260.27;105198;1254;98375;-62
2023/01/21 05:09:18;;;;;;;19.40;9.10;;;;;;;-0.95;94.94;98256.98;105279;1270;111277;-62
2023/01/21 05:11:45;;;;;;;8.00;3.40;;;;;;;-0.94;94.76;98263.09;105337;1256;97894;-62
2023/01/21 05:14:12;;;;;;;11.40;6.00;;;;;;;-0.97;94.60;98261.31;105208;1257;97998;-63
2023/01/21 05:16:39;;;;;;;5.40;3.10;;;;;;;-0.99;94.81;98268.56;105170;1256;99083;-62
2023/01/21 05:19:06;;;;;;;8.50;5.20;;;;;;;-1.05;94.61;98269.34;105221;1256;97962;-65
2023/01/21 05:21:33;;;;;;;6.60;4.00;;;;;;;-1.09;94.79;98273.91;105173;1260;98591;-65
2023/01/21 05:24:01;;;;;;;8.80;4.90;;;;;;;-1.14;94.68;98270.98;105255;1256;99053;-66
2023/01/21 05:26:28;;;;;;;8.20;4.90;;;;;;;-1.16;94.93;98273.16;105307;1257;97969;-62
2023/01/21 05:28:55;;;;;;;7.80;4.30;;;;;;;-1.18;94.86;98273.09;105280;1256;97889;-62
2023/01/21 05:31:23;;;;;;;10.20;5.60;;;;;;;-1.18;94.80;98270.16;105301;1256;99210;-62
2023/01/21 05:33:51;;;;;;;8.40;5.50;;;;;;;-1.16;94.99;98270.30;105301;1257;98729;-62
2023/01/21 05:36:18;;;;;;;7.00;3.70;;;;;;;-1.13;94.84;98276.38;105226;1257;98026;-62
2023/01/21 05:38:45;;;;;;;10.50;4.80;;;;;;;-1.12;94.71;98277.80;105211;1257;97981;-62
2023/01/21 05:41:12;;;;;;;10.60;5.50;;;;;;;-1.12;94.85;98276.43;105295;1256;97966;-62
2023/01/21 05:43:39;;;;;;;10.70;5.30;;;;;;;-1.11;94.45;98275.59;105285;1256;98017;-64
2023/01/21 05:46:05;;;;;;;10.20;5.70;;;;;;;-1.10;94.60;98273.88;105280;1257;97953;-63
2023/01/21 05:48:33;;;;;;;7.50;4.00;;;;;;;-1.08;94.51;98276.13;105269;1257;99200;-62
2023/01/21 05:51:00;;;;;;;9.70;4.90;;;;;;;-1.08;94.44;98277.09;105126;1254;98817;-63
2023/01/21 05:53:27;;;;;;;5.20;3.40;;;;;;;-1.10;94.39;98273.45;105325;1264;110715;-62
2023/01/21 05:55:56;;;;;;;8.20;5.00;;;;;;;-1.14;94.22;98271.79;105292;1259;99217;-62
2023/01/21 05:58:24;;;;;;;8.20;4.30;;;;;;;-1.18;94.44;98269.36;105301;1263;108400;-62
2023/01/21 06:00:51;;;;;;;7.30;4.50;;;;;;;-1.21;94.36;98263.61;105262;1257;99197;-62
2023/01/21 06:03:18;;;;;;;11.70;5.00;;;;;;;-1.24;94.40;98265.73;105347;1257;98165;-62
2023/01/21 06:05:48;;;;;;;9.00;4.70;;;;;;;-1.23;94.52;98264.23;105260;1266;99203;-62
2023/01/21 06:08:16;;;;;;;10.20;5.30;;;;;;;-1.22;94.47;98265.26;105282;1267;98255;-63
2023/01/21 06:10:44;;;;;;;8.50;4.80;;;;;;;-1.20;94.57;98269.86;105286;1264;109632;-63
2023/01/21 06:13:12;;;;;;;9.00;5.50;;;;;;;-1.17;94.54;98267.33;105287;1257;97876;-64
2023/01/21 06:15:39;;;;;;;8.30;5.20;;;;;;;-1.13;94.57;98266.53;105295;1268;98298;-63
2023/01/21 06:18:06;;;;;;;9.40;5.10;;;;;;;-1.11;94.28;98271.45;105219;1258;99116;-63
2023/01/21 06:20:34;;;;;;;9.40;4.70;;;;;;;-1.10;94.25;98270.17;105159;1254;97989;-63
2023/01/21 06:23:02;;;;;;;10.80;5.50;;;;;;;-1.12;93.99;98270.30;105226;1256;97938;-62
2023/01/21 06:25:30;;;;;;;9.20;5.10;;;;;;;-1.10;94.32;98272.39;105331;1256;97918;-62
2023/01/21 06:27:57;;;;;;;6.40;3.90;;;;;;;-1.08;94.34;98277.20;105361;1257;97887;-62
2023/01/21 06:30:25;;;;;;;8.20;4.30;;;;;;;-1.10;94.04;98275.34;105249;1257;98044;-62
2023/01/21 06:32:52;;;;;;;7.80;4.60;;;;;;;-1.12;94.26;98282.79;105050;1268;97943;-62
2023/01/21 06:35:19;;;;;;;7.80;4.30;;;;;;;-1.15;94.08;98284.10;105202;1257;98015;-63
2023/01/21 06:37:46;;;;;;;7.70;4.90;;;;;;;-1.18;94.10;98285.71;105251;1256;99099;-62
2023/01/21 06:40:13;;;;;;;6.60;3.40;;;;;;;-1.20;94.35;98285.67;105056;1256;97901;-62
2023/01/21 06:42:44;;;;;;;9.60;4.80;;;;;;;-1.23;94.28;98290.52;105269;1257;97887;-64
2023/01/21 06:45:12;;;;;;;12.00;5.50;;;;;;;-1.24;94.30;98291.58;105116;1257;99344;-66
2023/01/21 06:47:43;;;;;;;11.90;5.80;;;;;;;-1.22;94.33;98293.06;105269;1255;108400;-63
2023/01/21 06:50:13;;;;;;;10.70;5.30;;;;;;;-1.21;94.12;98294.31;105168;1254;97915;-63
2023/01/21 06:52:47;;;;;;;8.40;4.60;;;;;;;-1.19;94.23;98295.86;105249;1254;97886;-63
2023/01/21 06:55:17;;;;;;;9.80;5.50;;;;;;;-1.17;93.94;98298.36;105268;1254;112246;-63
2023/01/21 06:57:44;;;;;;;10.20;5.20;;;;;;;-1.15;93.97;98303.02;105265;1258;97909;-63
2023/01/21 07:00:12;;;;;;;9.50;4.90;;;;;;;-1.12;94.05;98302.85;105245;1257;98698;-63
2023/01/21 07:02:39;;;;;;;8.50;4.80;;;;;;;-1.09;94.02;98304.08;105321;1254;97949;-63
2023/01/21 07:05:06;;;;;;;8.40;4.40;;;;;;;-1.05;93.93;98311.13;105237;1257;98003;-63
2023/01/21 07:07:34;;;;;;;11.80;6.70;;;;;;;-1.03;93.80;98314.17;105243;1254;97968;-63
2023/01/21 07:10:01;;;;;;;9.50;5.30;;;;;;;-0.99;93.80;98314.70;105416;1264;97993;-63
2023/01/21 07:12:28;;;;;;;9.80;4.00;;;;;;;-0.96;93.86;98323.31;105089;1259;98434;-63
2023/01/21 07:14:55;;;;;;;9.20;5.30;;;;;;;-0.96;93.69;98325.35;105223;1256;98105;-63
2023/01/21 07:17:22;;;;;;;12.00;5.70;;;;;;;-0.96;93.99;98324.61;105282;1258;97953;-63
2023/01/21 07:19:49;;;;;;;11.30;5.70;;;;;;;-0.96;93.93;98331.06;105256;1254;99196;-63
2023/01/21 07:22:16;;;;;;;11.10;5.40;;;;;;;-0.95;94.00;98333.11;105274;1254;99105;-63
2023/01/21 07:24:43;;;;;;;8.10;4.50;;;;;;;-0.96;93.90;98333.95;105144;1252;98862;-63
2023/01/21 07:27:10;;;;;;;10.90;5.80;;;;;;;-0.98;93.95;98328.39;105223;1256;97905;-63
2023/01/21 07:29:37;;;;;;;11.30;5.10;;;;;;;-0.96;94.10;98333.59;105253;1256;99086;-62
2023/01/21 07:32:05;;;;;;;16.60;7.00;;;;;;;-0.94;94.07;98333.02;105244;1254;98343;-62
2023/01/21 07:34:32;;;;;;;12.70;6.80;;;;;;;-0.89;94.06;98333.91;105320;1256;99216;-62
2023/01/21 07:36:59;;;;;;;8.50;4.70;;;;;;;-0.84;93.91;98334.25;105315;1254;97933;-62
2023/01/21 07:39:26;;;;;;;12.40;6.30;;;;;;;-0.81;93.78;98338.43;105259;1257;98925;-62
2023/01/21 07:41:53;;;;;;;11.10;5.90;;;;;;;-0.73;94.12;98340.05;105227;1258;97995;-62
2023/01/21 07:44:20;;;;;;;13.00;6.00;;;;;;;-0.67;93.90;98344.23;105149;1258;99207;-62
2023/01/21 07:46:47;;;;;;;10.00;5.60;;;;;;;-0.61;93.41;98348.39;105253;1257;100142;-63
2023/01/21 07:49:16;;;;;;;12.60;5.80;;;;;;;-0.55;93.64;98348.01;105262;1256;99091;-62
2023/01/21 07:51:47;;;;;;;11.80;6.30;;;;;;;-0.48;93.45;98350.89;105283;1264;112063;-62
2023/01/21 07:54:14;;;;;;;11.40;6.70;;;;;;;-0.42;93.40;98350.77;105328;1254;98280;-63
2023/01/21 07:56:41;;;;;;;9.70;5.40;;;;;;;-0.39;93.15;98352.89;105274;1258;97982;-63
2023/01/21 07:59:10;;;;;;;24.20;12.80;;;;;;;-0.37;93.12;98357.66;105227;1256;97879;-62
2023/01/21 08:01:37;;;;;;;15.70;8.50;;;;;;;-0.37;93.18;98357.34;105149;1256;97889;-63
2023/01/21 08:04:05;;;;;;;6.60;4.60;;;;;;;-0.38;93.03;98359.53;105250;1256;97905;-67
2023/01/21 08:06:32;;;;;;;6.70;4.20;;;;;;;-0.42;92.99;98362.81;105217;1257;98479;-67
2023/01/21 08:08:59;;;;;;;8.30;4.70;;;;;;;-0.45;93.12;98364.35;105245;1269;97907;-63
2023/01/21 08:11:26;;;;;;;14.40;6.90;;;;;;;-0.43;93.35;98364.63;105263;1275;98373;-63
2023/01/21 08:13:54;;;;;;;12.20;6.30;;;;;;;-0.43;93.15;98364.04;105265;1256;99080;-63
2023/01/21 08:16:20;;;;;;;9.60;5.30;;;;;;;-0.45;92.90;98365.15;105348;1256;98023;-63
2023/01/21 08:18:48;;;;;;;11.90;6.40;;;;;;;-0.45;93.14;98365.03;105258;1263;97944;-63
2023/01/21 08:21:15;;;;;;;10.80;5.90;;;;;;;-0.41;93.40;98364.23;105291;1267;97908;-63
2023/01/21 08:23:42;;;;;;;26.30;9.20;;;;;;;-0.35;93.52;98366.35;104945;1259;98104;-63
2023/01/21 08:26:09;;;;;;;15.60;7.10;;;;;;;-0.29;93.37;98365.64;105370;1256;98814;-63
2023/01/21 08:28:36;;;;;;;17.10;6.40;;;;;;;-0.24;93.19;98366.49;105238;1256;99170;-63
2023/01/21 08:31:10;;;;;;;11.50;5.90;;;;;;;-0.22;92.98;98370.62;105217;1259;98691;-63
2023/01/21 08:33:38;;;;;;;15.60;6.30;;;;;;;-0.19;93.01;98365.53;105288;1262;99201;-63
2023/01/21 08:36:07;;;;;;;12.70;6.10;;;;;;;-0.16;92.88;98373.55;105316;1256;98703;-63
2023/01/21 08:38:34;;;;;;;9.10;5.80;;;;;;;-0.12;92.82;98370.36;105377;1256;110880;-63
2023/01/21 08:41:02;;;;;;;33.40;9.90;;;;;;;-0.06;92.89;98365.37;105300;1257;100297;-63
2023/01/21 08:43:29;;;;;;;14.60;7.00;;;;;;;-0.06;92.70;98367.33;105274;1256;107622;-63
2023/01/21 08:46:00;;;;;;;12.50;6.20;;;;;;;-0.06;92.68;98363.01;105169;1256;98010;-63
2023/01/21 08:48:28;;;;;;;12.90;5.50;;;;;;;-0.03;92.97;98361.59;105328;1257;97847;-63
2023/01/21 08:50:59;;;;;;;11.80;5.40;;;;;;;0.00;93.08;98365.23;105227;1254;112024;-63
2023/01/21 08:53:27;;;;;;;9.80;5.30;;;;;;;0.00;92.61;98369.60;105319;1256;99211;-63
2023/01/21 08:56:03;;;;;;;13.00;6.10;;;;;;;-0.02;92.44;98372.42;105189;1266;97898;-63
2023/01/21 08:58:32;;;;;;;11.70;5.70;;;;;;;-0.01;92.54;98372.48;104993;1267;98017;-63
2023/01/21 09:01:06;;;;;;;10.50;5.40;;;;;;;0.01;92.38;98373.00;105238;1275;99199;-63
2023/01/21 09:03:33;;;;;;;13.50;5.90;;;;;;;0.01;91.98;98377.08;105121;1256;111247;-64
2023/01/21 09:06:02;;;;;;;12.20;5.60;;;;;;;0.01;92.06;98380.98;105218;1257;98008;-63
2023/01/21 09:08:30;;;;;;;10.50;5.50;;;;;;;0.07;92.28;98380.48;105306;1273;107993;-63
2023/01/21 09:11:01;;;;;;;11.50;5.30;;;;;;;0.16;92.31;98381.09;105235;1254;99284;-63
2023/01/21 09:13:27;;;;;;;9.30;5.70;;;;;;;0.22;92.04;98378.80;104976;1252;98053;-64
2023/01/21 09:15:55;;;;;;;11.60;6.30;;;;;;;0.28;91.75;98382.36;105017;1256;97951;-64
2023/01/21 09:18:23;;;;;;;7.80;4.60;;;;;;;0.31;91.45;98382.33;105300;1254;99302;-63
2023/01/21 09:20:50;;;;;;;7.00;4.30;;;;;;;0.33;91.21;98383.65;105285;1257;97902;-63
2023/01/21 09:23:23;;;;;;;9.50;5.40;;;;;;;0.35;91.16;98387.88;105056;1258;97966;-63
2023/01/21 09:25:53;;;;;;;8.20;4.60;;;;;;;0.40;91.48;98391.27;105263;1254;99198;-65
2023/01/21 09:28:21;;;;;;;;;;;;;;;0.40;91.44;98395.32;105283;1257;112668;-66
2023/01/21 09:30:48;;;;;;;;;;;;;;;0.42;91.25;98396.14;105331;1257;99285;-63
2023/01/21 09:33:15;;;;;;;;;;;;;;;0.44;91.35;98400.59;105275;1257;97986;-63
2023/01/21 09:35:43;;;;;;;;;;;;;;;0.44;91.06;98406.52;105279;1256;97915;-63
2023/01/21 09:38:11;;;;;;;;;;;;;;;0.38;90.88;98408.27;105258;1266;97870;-62
2023/01/21 09:40:43;;;;;;;;;;;;;;;0.40;91.16;98409.77;105348;1256;112202;-63
2023/01/21 09:43:14;;;;;;;;;;;;;;;0.40;91.10;98407.50;105347;1256;99226;-63
2023/01/21 09:45:42;;;;;;;;;;;;;;;0.39;90.85;98408.51;105155;1257;108577;-64
2023/01/21 09:48:13;;;;;;;;;;;;;;;0.34;90.59;98413.25;105256;1257;97981;-67
2023/01/21 09:50:45;;;;;;;;;;;;;;;0.33;90.94;98412.33;105318;1254;98039;-68
2023/01/21 09:53:32;;;;;;;;;;;;;;;0.39;91.00;98408.41;105278;1256;112253;-68
2023/01/21 09:56:01;;;;;;;;;;;;;;;0.47;91.07;98410.44;105329;1257;98705;-67
2023/01/21 09:58:34;;;;;;;;;;;;;;;0.53;90.75;98408.28;105083;1254;108742;-66
2023/01/21 10:01:13;;;;;;;;;;;;;;;0.54;90.29;98409.59;105219;1256;99249;-66
2023/01/21 10:03:51;;;;;;;;;;;;;;;0.57;90.14;98408.48;105320;1256;98817;-66
2023/01/21 10:06:28;;;;;;;;;;;;;;;0.60;90.18;98402.65;105009;1260;111474;-66
2023/01/21 10:09:07;;;;;;;;;;;;;;;0.65;90.21;98402.04;105300;1254;98622;-66
2023/01/21 10:11:34;;;;;;;;;;;;;;;0.74;90.51;98399.44;105285;1256;107401;-65
2023/01/21 10:14:01;;;;;;;;;;;;;;;0.86;90.65;98399.33;105096;1266;97889;-64
2023/01/21 10:16:28;;;;;;;;;;;;;;;0.90;89.91;98401.04;105166;1257;98817;-64
2023/01/21 10:18:57;;;;;;;;;;;;;;;0.95;90.03;98394.98;105293;1266;98003;-65
2023/01/21 10:21:40;;;;;;;;;;;;;;;0.98;89.39;98396.84;105309;1266;97992;-61
2023/01/21 10:24:11;;;;;;;;;;;;;;;0.99;89.14;98399.55;105137;1256;107685;-61
2023/01/21 10:26:40;;;;;;;;;;;;;;;0.99;89.43;98402.09;105355;1267;97922;-61
2023/01/21 10:29:10;;;;;;;;;;;;;;;0.96;88.90;98403.63;105326;1256;97992;-61
2023/01/21 10:31:39;;;;;;;;;;;;;;;0.89;88.65;98404.58;105261;1256;111201;-61
2023/01/21 10:34:14;;;;;;;;;;;;;;;0.81;88.67;98402.25;105115;1268;100809;-61
2023/01/21 10:36:45;;;;;;;;;;;;;;;0.80;89.21;98403.91;105335;1271;107684;-61
2023/01/21 10:39:15;;;;;;;;;;;;;;;0.80;89.17;98402.77;105308;1256;97905;-60
2023/01/21 10:41:45;;;;;;;;;;;;;;;0.83;89.52;98405.28;105228;1257;97823;-61
2023/01/21 10:44:24;;;;;;;;;;;;;;;0.86;89.40;98402.88;105108;1271;111775;-61
2023/01/21 10:46:59;;;;;;;;;;;;;;;0.90;89.63;98401.30;105217;1257;99169;-63
2023/01/21 10:56:55;;;;;;;;;;;;;;;0.90;89.10;98396.02;105239;1257;97985;-63
2023/01/21 10:59:25;;;;;;;;;;;;;;;0.96;89.49;98396.50;105289;1258;112322;-61
2023/01/21 11:02:02;;;;;;;;;;;;;;;1.01;89.30;98398.58;105312;1254;99072;-61
2023/01/21 11:04:29;;;;;;;;;;;;;;;0.98;88.84;98394.36;105263;1256;106822;-61
2023/01/21 11:07:00;;;;;;;;;;;;;;;0.96;88.78;98394.50;105184;1266;97918;-61
2023/01/21 11:09:30;;;;;;;;;;;;;;;0.98;88.62;98400.95;105165;1254;97905;-61
2023/01/21 11:11:57;;;;;;;;;;;;;;;1.00;88.79;98400.59;104926;1259;113141;-61
2023/01/21 11:14:24;;;;;;;;;;;;;;;1.03;88.26;98396.88;105054;1257;98582;-61
2023/01/21 11:16:52;;;;;;;;;;;;;;;1.11;88.35;98394.79;105245;1256;98789;-61
2023/01/21 11:19:23;;;;;;;;;;;;;;;1.17;88.29;98392.02;105187;1264;97898;-61
2023/01/21 11:21:56;;;;;;;;;;;;;;;1.26;88.30;98389.28;105311;1264;99105;-61
2023/01/21 11:24:24;;;;;;;;;;;;;;;1.37;88.42;98385.31;105257;1257;111929;-61
2023/01/21 11:27:00;;;;;;;;;;;;;;;1.49;87.83;98384.91;105346;1256;99122;-61
2023/01/21 11:29:37;;;;;;;;;;;;;;;1.47;86.94;98382.23;105149;1254;108893;-61
2023/01/21 11:32:15;;;;;;;;;;;;;;;1.55;87.75;98384.88;105195;1254;97885;-61
2023/01/21 11:34:46;;;;;;;;;;;;;;;1.57;86.90;98386.69;105002;1257;97889;-61
2023/01/21 11:37:23;;;;;;;;;;;;;;;1.56;87.04;98385.75;105289;1257;112563;-61
2023/01/21 11:39:53;;;;;;;;;;;;;;;1.53;86.90;98388.11;105297;1256;99419;-61
2023/01/21 11:42:22;;;;;;;;;;;;;;;1.44;86.26;98383.79;105244;1256;108372;-61
2023/01/21 11:44:49;;;;;;;;;;;;;;;1.38;86.74;98386.92;105317;1257;98062;-61
2023/01/21 11:47:26;;;;;;;;;;;;;;;1.37;87.14;98387.52;105168;1256;97973;-61
2023/01/21 11:49:53;;;;;;;;;;;;;;;1.36;87.29;98387.50;105203;1257;110674;-61
2023/01/21 11:52:20;;;;;;;;;;;;;;;1.37;87.50;98381.41;105263;1255;97892;-61
2023/01/21 11:54:48;;;;;;;;;;;;;;;1.36;87.16;98378.16;105229;1264;97966;-61
2023/01/21 11:57:31;;;;;;;;;;;;;;;1.37;87.47;98373.64;105345;1255;97914;-61
2023/01/21 12:00:04;;;;;;;;;;;;;;;1.39;87.48;98374.63;105347;1254;99086;-62